Observations for EDINBURGH AIRPORT, United Kingdom (EGPH)

EGPH 241520Z 11008KT 070V140 CAVOK 06/M04 Q1025 
EGPH 241450Z 12010KT CAVOK 07/M04 Q1025 
EGPH 241420Z 11010KT CAVOK 06/M04 Q1025 
EGPH 241350Z 11009KT CAVOK 06/M03 Q1025 
EGPH 241320Z 11010KT CAVOK 06/M03 Q1025 
EGPH 241250Z 10010KT CAVOK 06/M02 Q1026 
EGPH 241220Z 11010KT CAVOK 05/M02 Q1026 
EGPH 241150Z 11010KT CAVOK 04/M02 Q1026 
EGPH 241120Z 12011KT CAVOK 04/M02 Q1026 
EGPH 241050Z 11009KT 9999 FEW026 03/M02 Q1026   
EGPH 241020Z 11011KT 9999 FEW025 03/M02 Q1026   
EGPH 240950Z 09008KT CAVOK 03/M02 Q1025 
EGPH 240920Z 09007KT CAVOK 02/M02 Q1025 
EGPH 240850Z 08006KT CAVOK 01/M02 Q1025 
EGPH 240820Z 07008KT 010V110 CAVOK 00/M02 Q1025 
EGPH 240750Z 07006KT CAVOK M01/M03 Q1024
EGPH 240720Z 08008KT CAVOK M01/M04 Q1024
EGPH 240650Z 08008KT CAVOK M02/M04 Q1024
EGPH 240620Z 05004KT CAVOK M03/M05 Q1023
EGPH 240550Z 08004KT CAVOK M03/M05 Q1023
EGPH 240520Z 06004KT CAVOK M03/M05 Q1023
EGPH 240450Z 09005KT CAVOK M01/M04 Q1023
EGPH 240420Z 08006KT CAVOK M02/M05 Q1023
EGPH 240350Z 09007KT CAVOK M01/M04 Q1022
EGPH 240320Z 10008KT CAVOK M01/M04 Q1022
EGPH 240250Z 11007KT CAVOK M00/M04 Q1022
EGPH 240220Z 09007KT CAVOK M01/M04 Q1022
EGPH 240150Z 09006KT CAVOK M00/M04 Q1022
EGPH 240120Z 12008KT CAVOK 00/M04 Q1022 
EGPH 240050Z 12008KT CAVOK 01/M04 Q1022 
EGPH 240020Z 11009KT CAVOK 01/M04 Q1022 
EGPH 232350Z 11008KT CAVOK 01/M04 Q1021 
EGPH 232320Z 13012KT 090V160 CAVOK 02/M03 Q1021 
EGPH 232250Z 12007KT 070V150 CAVOK 02/M03 Q1021 
EGPH 232220Z 11006KT 080V150 CAVOK 02/M03 Q1021 
EGPH 232150Z 12008KT 080V160 CAVOK 02/M03 Q1021 
EGPH 232120Z 13012KT CAVOK 02/M03 Q1021 
EGPH 232050Z 13006KT 090V180 CAVOK 02/M02 Q1021 
EGPH 232020Z 10005KT 060V180 9999 FEW028 03/M03 Q1021   
EGPH 231950Z 14004KT 060V210 CAVOK 03/M02 Q1021 
EGPH 231920Z 16009KT CAVOK 03/M02 Q1021 
EGPH 231850Z 13009KT 100V200 CAVOK 03/M02 Q1021 
EGPH 231820Z 14008KT CAVOK 03/M02 Q1021 
EGPH 231750Z 13007KT 9999 FEW034 03/M02 Q1021   
EGPH 231720Z VRB05KT 9999 FEW035 04/M02 Q1021   
EGPH 231650Z 15007KT 100V180 CAVOK 04/M02 Q1021 
EGPH 231620Z 15007KT 110V190 CAVOK 05/M02 Q1021 
EGPH 231550Z 15009KT 130V200 9999 FEW036 05/M02 Q1021   
EGPH 231520Z 16008KT 130V200 9999 FEW035 05/M02 Q1021   
EGPH 231450Z 17009KT 9999 FEW034 05/M02 Q1021